Time;durP1;ratioP1;P1;durP2;ratioP2;P2;SDS_P1;SDS_P2;PMS_P1;PMS_P2;Temp;Humidity;BMP_temperature;BMP_pressure;BME280_temperature;BME280_humidity;BME280_pressure;Samples;Min_cycle;Max_cycle;Signal;HPM_P1;HPM_P2
2021/07/24 00:00:36;;;;;;;5.88;5.28;;;;;;;;;;5019336;28;20038;-71
2021/07/24 00:03:03;;;;;;;8.10;6.13;;;;;;;;;;5018259;28;20030;-72
2021/07/24 00:05:29;;;;;;;8.40;6.97;;;;;;;;;;5020368;28;20104;-71
2021/07/24 00:07:55;;;;;;;9.20;7.00;;;;;;;;;;5018758;28;20076;-71
2021/07/24 00:10:21;;;;;;;7.72;6.93;;;;;;;;;;5021685;28;20025;-72
2021/07/24 00:12:50;;;;;;;9.50;7.35;;;;;;;;;;5021976;28;20037;-73
2021/07/24 00:15:16;;;;;;;6.97;6.28;;;;;;;;;;5022673;28;20418;-72
2021/07/24 00:17:42;;;;;;;8.68;7.10;;;;;;;;;;5029914;28;20029;-73
2021/07/24 00:20:09;;;;;;;8.63;5.65;;;;;;;;;;5023807;28;20034;-72
2021/07/24 00:22:35;;;;;;;7.35;6.47;;;;;;;;;;5026220;28;20427;-71
2021/07/24 00:25:01;;;;;;;9.15;7.18;;;;;;;;;;5029814;28;20072;-71
2021/07/24 00:27:27;;;;;;;8.82;7.22;;;;;;;;;;5025145;28;20095;-71
2021/07/24 00:29:54;;;;;;;9.23;7.20;;;;;;;;;;5028182;28;20017;-71
2021/07/24 00:32:20;;;;;;;10.25;7.32;;;;;;;;;;5027960;28;20018;-72
2021/07/24 00:34:46;;;;;;;11.23;7.10;;;;;;;;;;5028238;28;20109;-71
2021/07/24 00:37:14;;;;;;;7.63;6.40;;;;;;;;;;5023299;28;20048;-72
2021/07/24 00:39:40;;;;;;;8.52;6.60;;;;;;;;;;5027523;28;20092;-71
2021/07/24 00:42:16;;;;;;;8.40;6.57;;;;;;;;;;5027669;28;20630;-71
2021/07/24 00:44:45;;;;;;;9.07;6.80;;;;;;;;;;5027119;28;20037;-72
2021/07/24 00:47:14;;;;;;;10.40;7.65;;;;;;;;;;5027989;28;20164;-72
2021/07/24 00:49:40;;;;;;;10.35;6.88;;;;;;;;;;5029522;28;20607;-72
2021/07/24 00:52:06;;;;;;;11.55;6.63;;;;;;;;;;5029458;28;20094;-72
2021/07/24 00:54:33;;;;;;;8.60;6.82;;;;;;;;;;5025873;28;20036;-72
2021/07/24 00:56:59;;;;;;;12.13;7.18;;;;;;;;;;5028713;28;20528;-71
2021/07/24 00:59:25;;;;;;;9.23;7.55;;;;;;;;;;5026081;28;20030;-73
2021/07/24 01:01:52;;;;;;;8.30;7.10;;;;;;;;;;5021983;28;20157;-71
2021/07/24 01:04:18;;;;;;;8.38;6.47;;;;;;;;;;5026402;28;20036;-71
2021/07/24 01:06:46;;;;;;;9.35;7.40;;;;;;;;;;5017635;28;20505;-72
2021/07/24 01:09:12;;;;;;;7.95;6.03;;;;;;;;;;5022378;28;20029;-72
2021/07/24 01:11:38;;;;;;;8.13;5.70;;;;;;;;;;5018823;28;20021;-71
2021/07/24 01:14:05;;;;;;;6.40;5.78;;;;;;;;;;5023208;28;20116;-72
2021/07/24 01:16:31;;;;;;;10.80;6.25;;;;;;;;;;5017030;28;20033;-71
2021/07/24 01:18:57;;;;;;;8.07;6.18;;;;;;;;;;5019994;28;20049;-72
2021/07/24 01:21:26;;;;;;;7.35;5.78;;;;;;;;;;5020951;28;20029;-72
2021/07/24 01:23:52;;;;;;;8.18;5.97;;;;;;;;;;5022778;28;20030;-72
2021/07/24 01:26:25;;;;;;;8.85;5.93;;;;;;;;;;5014688;28;20037;-72
2021/07/24 01:28:52;;;;;;;6.30;5.70;;;;;;;;;;5013175;28;20481;-72
2021/07/24 01:31:18;;;;;;;7.88;5.07;;;;;;;;;;5019645;28;20486;-72
2021/07/24 01:33:44;;;;;;;6.03;5.43;;;;;;;;;;5021960;28;20044;-72
2021/07/24 01:36:10;;;;;;;8.13;5.35;;;;;;;;;;5016438;28;20104;-72
2021/07/24 01:38:37;;;;;;;8.48;6.10;;;;;;;;;;5015205;28;20029;-73
2021/07/24 01:41:07;;;;;;;8.07;5.13;;;;;;;;;;5026459;28;20030;-71
2021/07/24 01:43:33;;;;;;;8.52;4.97;;;;;;;;;;5023079;28;20054;-72
2021/07/24 01:45:59;;;;;;;5.78;4.78;;;;;;;;;;5017595;28;20025;-70
2021/07/24 01:48:54;;;;;;;6.30;5.70;;;;;;;;;;5022231;28;20623;-72
2021/07/24 01:54:18;;;;;;;7.32;5.10;;;;;;;;;;5023616;28;20406;-72
2021/07/24 01:56:44;;;;;;;8.00;5.10;;;;;;;;;;5019604;28;20543;-72
2021/07/24 01:59:10;;;;;;;6.85;4.97;;;;;;;;;;5022451;28;20044;-72
2021/07/24 02:01:38;;;;;;;5.38;4.68;;;;;;;;;;5017228;28;20573;-72
2021/07/24 02:04:11;;;;;;;5.40;4.40;;;;;;;;;;5013142;28;20055;-72
2021/07/24 02:06:37;;;;;;;7.22;5.15;;;;;;;;;;5014234;28;20124;-72
2021/07/24 02:09:04;;;;;;;8.45;5.50;;;;;;;;;;5022532;28;20018;-72
2021/07/24 02:11:30;;;;;;;5.93;5.30;;;;;;;;;;5018830;28;20103;-72
2021/07/24 02:13:56;;;;;;;7.03;5.07;;;;;;;;;;5019702;28;20036;-72
2021/07/24 02:16:22;;;;;;;5.75;5.25;;;;;;;;;;5019404;28;20033;-71
2021/07/24 02:18:49;;;;;;;8.13;5.70;;;;;;;;;;5015058;28;20046;-71
2021/07/24 02:21:16;;;;;;;7.10;5.82;;;;;;;;;;5008920;28;20072;-72
2021/07/24 02:23:42;;;;;;;8.90;6.45;;;;;;;;;;5019286;28;20425;-71
2021/07/24 02:26:11;;;;;;;10.13;6.45;;;;;;;;;;5016266;28;20393;-72
2021/07/24 02:28:37;;;;;;;6.60;5.80;;;;;;;;;;5017344;28;20037;-72
2021/07/24 02:31:05;;;;;;;6.35;5.63;;;;;;;;;;5016765;28;20033;-72
2021/07/24 02:33:31;;;;;;;6.97;5.68;;;;;;;;;;5016298;28;20037;-73
2021/07/24 02:35:57;;;;;;;6.20;5.43;;;;;;;;;;5022340;28;20026;-72
2021/07/24 02:38:24;;;;;;;7.55;6.18;;;;;;;;;;5015288;28;20026;-72
2021/07/24 02:40:50;;;;;;;6.85;6.15;;;;;;;;;;5012604;28;20034;-71
2021/07/24 02:43:16;;;;;;;7.00;6.30;;;;;;;;;;5022199;28;20112;-71
2021/07/24 02:45:42;;;;;;;7.72;5.90;;;;;;;;;;5018012;28;20517;-72
2021/07/24 02:48:08;;;;;;;8.57;6.28;;;;;;;;;;5013028;28;20479;-72
2021/07/24 02:50:35;;;;;;;7.22;6.18;;;;;;;;;;5019433;28;20025;-71
2021/07/24 02:53:01;;;;;;;9.25;6.20;;;;;;;;;;5022213;28;20076;-72
2021/07/24 02:55:27;;;;;;;8.13;6.03;;;;;;;;;;5011129;28;20049;-72
2021/07/24 02:57:53;;;;;;;8.30;5.70;;;;;;;;;;5011709;28;20028;-71
2021/07/24 03:00:19;;;;;;;7.43;5.90;;;;;;;;;;5015493;28;20257;-71
2021/07/24 03:02:46;;;;;;;6.03;5.45;;;;;;;;;;5010388;28;20041;-71
2021/07/24 03:05:12;;;;;;;7.18;5.25;;;;;;;;;;5023285;28;20043;-72
2021/07/24 03:07:38;;;;;;;9.80;5.60;;;;;;;;;;5014840;28;20045;-72
2021/07/24 03:10:04;;;;;;;5.85;5.18;;;;;;;;;;5021805;28;20022;-72
2021/07/24 03:12:31;;;;;;;6.90;5.85;;;;;;;;;;5020608;28;20025;-72
2021/07/24 03:14:57;;;;;;;7.78;6.05;;;;;;;;;;5022080;28;20170;-73
2021/07/24 03:17:26;;;;;;;8.00;6.28;;;;;;;;;;5021788;28;20045;-72
2021/07/24 03:19:52;;;;;;;7.18;6.45;;;;;;;;;;5021706;28;20037;-72
2021/07/24 03:22:18;;;;;;;6.65;5.75;;;;;;;;;;5020662;28;20390;-72
2021/07/24 03:24:44;;;;;;;12.15;6.60;;;;;;;;;;5021659;28;20028;-71
2021/07/24 03:27:10;;;;;;;8.05;6.32;;;;;;;;;;5021955;28;20065;-72
2021/07/24 03:29:37;;;;;;;6.78;5.47;;;;;;;;;;5018918;28;20020;-72
2021/07/24 03:32:03;;;;;;;6.65;5.03;;;;;;;;;;5021480;28;20064;-71
2021/07/24 03:34:29;;;;;;;7.53;5.25;;;;;;;;;;5021656;28;20033;-72
2021/07/24 03:36:55;;;;;;;6.72;5.07;;;;;;;;;;5021462;28;20097;-72
2021/07/24 03:39:21;;;;;;;5.78;5.20;;;;;;;;;;5021899;28;20045;-71
2021/07/24 03:41:47;;;;;;;6.03;5.25;;;;;;;;;;5020301;28;20659;-72
2021/07/24 03:44:14;;;;;;;5.95;4.55;;;;;;;;;;5021536;28;20040;-71
2021/07/24 03:46:41;;;;;;;6.18;5.03;;;;;;;;;;5021484;28;20038;-71
2021/07/24 03:49:07;;;;;;;4.50;4.10;;;;;;;;;;5020375;28;20060;-72
2021/07/24 03:51:33;;;;;;;5.40;4.90;;;;;;;;;;5021425;28;20078;-72
2021/07/24 03:53:59;;;;;;;5.60;4.93;;;;;;;;;;5018803;28;20116;-72
2021/07/24 03:56:25;;;;;;;5.70;4.93;;;;;;;;;;5021925;28;20037;-72
2021/07/24 03:58:53;;;;;;;5.90;5.03;;;;;;;;;;5021677;28;20026;-72
2021/07/24 04:01:22;;;;;;;5.68;4.65;;;;;;;;;;5021257;28;20029;-71
2021/07/24 04:03:48;;;;;;;6.32;4.80;;;;;;;;;;5021267;28;20084;-72
2021/07/24 04:06:25;;;;;;;8.60;4.78;;;;;;;;;;5019889;28;20022;-71
2021/07/24 04:08:53;;;;;;;5.57;4.45;;;;;;;;;;5021274;28;20415;-72
2021/07/24 04:11:20;;;;;;;6.57;4.95;;;;;;;;;;5020900;28;20034;-72
2021/07/24 04:13:47;;;;;;;7.80;5.05;;;;;;;;;;5021366;28;20025;-73
2021/07/24 04:16:13;;;;;;;5.95;4.88;;;;;;;;;;5021589;28;20040;-72
2021/07/24 04:18:41;;;;;;;6.53;4.30;;;;;;;;;;5019196;28;20053;-72
2021/07/24 04:21:07;;;;;;;6.20;5.57;;;;;;;;;;5021111;28;20032;-73
2021/07/24 04:23:33;;;;;;;5.82;4.60;;;;;;;;;;5021356;28;20037;-72
2021/07/24 04:25:59;;;;;;;6.30;4.80;;;;;;;;;;5021269;28;20029;-73
2021/07/24 04:28:27;;;;;;;5.32;4.78;;;;;;;;;;5021241;28;20049;-72
2021/07/24 04:30:53;;;;;;;6.47;5.40;;;;;;;;;;5020097;28;20734;-72
2021/07/24 04:33:19;;;;;;;18.77;13.57;;;;;;;;;;5021336;28;20033;-71
2021/07/24 04:35:46;;;;;;;14.07;10.07;;;;;;;;;;5021147;28;20025;-72
2021/07/24 04:38:13;;;;;;;21.83;17.73;;;;;;;;;;5021092;28;20037;-73
2021/07/24 04:40:39;;;;;;;48.60;37.58;;;;;;;;;;5021565;28;20025;-72
2021/07/24 04:43:06;;;;;;;86.40;67.50;;;;;;;;;;5022827;28;20033;-72
2021/07/24 04:45:32;;;;;;;79.45;66.03;;;;;;;;;;5024634;28;20017;-73
2021/07/24 04:47:58;;;;;;;88.72;68.35;;;;;;;;;;5024991;28;20030;-72
2021/07/24 04:50:24;;;;;;;76.75;64.43;;;;;;;;;;5024555;28;20029;-71
2021/07/24 04:52:51;;;;;;;84.93;63.10;;;;;;;;;;5024513;28;20073;-72
2021/07/24 04:55:17;;;;;;;73.95;57.50;;;;;;;;;;5023616;28;20021;-72
2021/07/24 04:57:44;;;;;;;46.60;38.65;;;;;;;;;;5024278;28;20120;-72
2021/07/24 05:00:11;;;;;;;17.17;15.05;;;;;;;;;;5025010;28;20033;-72
2021/07/24 05:02:37;;;;;;;19.08;13.82;;;;;;;;;;5023638;28;20029;-72
2021/07/24 05:05:04;;;;;;;15.30;12.05;;;;;;;;;;5024283;28;20033;-72
2021/07/24 05:07:32;;;;;;;15.32;11.50;;;;;;;;;;5023126;28;20037;-73
2021/07/24 05:09:58;;;;;;;12.95;9.23;;;;;;;;;;5024517;28;20067;-72
2021/07/24 05:12:25;;;;;;;11.07;9.07;;;;;;;;;;5024271;28;20025;-73
2021/07/24 05:14:51;;;;;;;15.35;9.63;;;;;;;;;;5023940;28;20017;-73
2021/07/24 05:17:17;;;;;;;16.50;9.30;;;;;;;;;;5022007;28;20038;-73
2021/07/24 05:19:44;;;;;;;13.13;11.52;;;;;;;;;;5024012;28;20056;-71
2021/07/24 05:22:11;;;;;;;15.52;11.73;;;;;;;;;;5024574;28;20037;-71
2021/07/24 05:24:37;;;;;;;18.08;13.18;;;;;;;;;;5022387;28;20041;-73
2021/07/24 05:27:04;;;;;;;23.63;16.23;;;;;;;;;;5023988;28;20029;-73
2021/07/24 05:29:30;;;;;;;22.48;15.93;;;;;;;;;;5024324;28;20381;-73
2021/07/24 05:31:57;;;;;;;23.20;16.20;;;;;;;;;;5023963;28;20049;-73
2021/07/24 05:34:23;;;;;;;22.85;16.30;;;;;;;;;;5022565;28;20114;-73
2021/07/24 05:36:49;;;;;;;25.15;17.55;;;;;;;;;;5023850;28;20021;-72
2021/07/24 05:39:16;;;;;;;23.10;16.23;;;;;;;;;;5023661;28;20258;-73
2021/07/24 05:41:42;;;;;;;19.20;15.65;;;;;;;;;;5024235;28;20039;-72
2021/07/24 05:44:10;;;;;;;20.00;15.30;;;;;;;;;;5021842;28;20156;-72
2021/07/24 05:46:36;;;;;;;17.40;13.68;;;;;;;;;;5023310;28;20489;-72
2021/07/24 05:49:02;;;;;;;13.50;11.27;;;;;;;;;;5023581;28;20406;-73
2021/07/24 05:51:28;;;;;;;13.85;10.70;;;;;;;;;;5023614;28;20458;-72
2021/07/24 05:53:54;;;;;;;13.15;10.10;;;;;;;;;;5022410;28;20033;-72
2021/07/24 05:56:20;;;;;;;13.60;10.68;;;;;;;;;;5022310;28;20029;-72
2021/07/24 05:58:47;;;;;;;15.13;12.30;;;;;;;;;;5023011;28;20090;-73
2021/07/24 06:01:13;;;;;;;12.43;10.57;;;;;;;;;;5023242;28;20483;-72
2021/07/24 06:03:39;;;;;;;18.05;11.52;;;;;;;;;;5023600;28;20030;-72
2021/07/24 06:06:06;;;;;;;11.00;9.13;;;;;;;;;;5022512;28;20037;-73
2021/07/24 06:08:32;;;;;;;9.40;8.02;;;;;;;;;;5020895;28;20033;-73
2021/07/24 06:11:02;;;;;;;10.93;7.60;;;;;;;;;;5022656;28;20028;-73
2021/07/24 06:13:28;;;;;;;9.75;7.55;;;;;;;;;;5021211;28;20405;-73
2021/07/24 06:15:54;;;;;;;7.90;6.85;;;;;;;;;;5021032;28;20053;-72
2021/07/24 06:18:21;;;;;;;8.68;6.70;;;;;;;;;;5019851;28;20049;-72
2021/07/24 06:20:48;;;;;;;11.00;6.75;;;;;;;;;;5021604;28;20038;-73
2021/07/24 06:23:18;;;;;;;8.88;6.55;;;;;;;;;;5020340;28;20033;-72
2021/07/24 06:25:48;;;;;;;7.97;6.38;;;;;;;;;;5021574;28;20045;-72
2021/07/24 06:28:14;;;;;;;7.15;5.45;;;;;;;;;;5018847;28;20033;-73
2021/07/24 06:30:41;;;;;;;7.43;5.35;;;;;;;;;;5022210;28;20032;-72
2021/07/24 06:33:08;;;;;;;5.78;5.03;;;;;;;;;;5021630;28;20381;-73
2021/07/24 06:35:34;;;;;;;7.70;4.97;;;;;;;;;;5017864;28;20075;-72
2021/07/24 06:38:00;;;;;;;9.70;5.13;;;;;;;;;;5019871;28;20102;-72
2021/07/24 06:40:27;;;;;;;8.40;5.88;;;;;;;;;;5019489;28;20025;-73
2021/07/24 06:42:53;;;;;;;9.68;5.95;;;;;;;;;;5019563;28;20424;-72
2021/07/24 06:45:20;;;;;;;8.35;6.22;;;;;;;;;;5020139;28;20354;-72
2021/07/24 06:47:46;;;;;;;10.10;6.38;;;;;;;;;;5018789;28;20036;-72
2021/07/24 06:50:12;;;;;;;8.80;6.20;;;;;;;;;;5021396;28;20318;-73
2021/07/24 06:52:39;;;;;;;11.15;7.50;;;;;;;;;;5021508;28;20167;-72
2021/07/24 06:55:06;;;;;;;11.07;8.40;;;;;;;;;;5020712;28;20102;-72
2021/07/24 06:57:32;;;;;;;14.30;8.80;;;;;;;;;;5021511;28;20033;-72
2021/07/24 06:59:58;;;;;;;11.98;7.60;;;;;;;;;;5021327;28;20453;-73
2021/07/24 07:02:25;;;;;;;11.15;6.88;;;;;;;;;;5019762;28;20505;-73
2021/07/24 07:04:51;;;;;;;8.75;7.28;;;;;;;;;;5021173;28;20026;-73
2021/07/24 07:07:20;;;;;;;8.75;6.43;;;;;;;;;;5021506;28;20480;-73
2021/07/24 07:09:46;;;;;;;7.20;5.22;;;;;;;;;;5020219;28;20158;-73
2021/07/24 07:12:12;;;;;;;6.30;4.80;;;;;;;;;;5021394;28;20048;-73
2021/07/24 07:14:38;;;;;;;5.32;4.60;;;;;;;;;;5019886;28;20021;-72
2021/07/24 07:17:04;;;;;;;6.53;4.85;;;;;;;;;;5021601;28;20060;-73
2021/07/24 07:19:31;;;;;;;7.90;5.40;;;;;;;;;;5020848;28;20501;-72
2021/07/24 07:21:57;;;;;;;6.03;4.80;;;;;;;;;;5020794;28;20441;-72
2021/07/24 07:24:23;;;;;;;6.63;4.90;;;;;;;;;;5021192;28;20068;-73
2021/07/24 07:26:49;;;;;;;6.03;4.68;;;;;;;;;;5017896;28;20032;-72
2021/07/24 07:29:15;;;;;;;8.38;5.35;;;;;;;;;;5021140;28;20034;-73
2021/07/24 07:31:41;;;;;;;5.82;4.78;;;;;;;;;;5018529;28;20021;-72
2021/07/24 07:34:07;;;;;;;7.20;5.03;;;;;;;;;;5018717;28;20331;-72
2021/07/24 07:36:34;;;;;;;6.47;5.10;;;;;;;;;;5021831;28;20020;-72
2021/07/24 07:39:00;;;;;;;8.38;5.05;;;;;;;;;;5020871;28;20398;-72
2021/07/24 07:41:26;;;;;;;7.30;4.97;;;;;;;;;;5020823;28;20026;-72
2021/07/24 07:43:53;;;;;;;7.43;5.03;;;;;;;;;;5017842;28;20286;-72
2021/07/24 07:46:19;;;;;;;6.57;5.40;;;;;;;;;;5021978;28;20039;-72
2021/07/24 07:48:45;;;;;;;7.55;4.90;;;;;;;;;;5021498;28;20041;-72
2021/07/24 07:51:11;;;;;;;6.75;5.15;;;;;;;;;;5021543;28;20039;-73
2021/07/24 07:53:38;;;;;;;9.98;5.15;;;;;;;;;;5019750;28;20474;-72
2021/07/24 07:56:06;;;;;;;6.60;5.07;;;;;;;;;;5021572;28;20405;-72
2021/07/24 07:58:32;;;;;;;10.10;5.43;;;;;;;;;;5021278;28;20014;-73
2021/07/24 08:00:58;;;;;;;9.50;5.65;;;;;;;;;;5021071;28;20037;-73
2021/07/24 08:03:27;;;;;;;7.45;5.68;;;;;;;;;;5019710;28;20021;-73
2021/07/24 08:05:54;;;;;;;6.60;5.43;;;;;;;;;;5020797;28;20386;-73
2021/07/24 08:08:20;;;;;;;8.25;6.35;;;;;;;;;;5020871;28;20038;-73
2021/07/24 08:10:47;;;;;;;11.18;5.22;;;;;;;;;;5020887;28;20017;-73
2021/07/24 08:13:13;;;;;;;10.50;6.00;;;;;;;;;;5019339;28;20116;-73
2021/07/24 08:15:40;;;;;;;7.13;5.50;;;;;;;;;;5020896;28;20108;-72
2021/07/24 08:18:06;;;;;;;6.30;5.13;;;;;;;;;;5024831;28;20049;-73
2021/07/24 08:20:33;;;;;;;8.15;5.55;;;;;;;;;;5025113;28;20541;-73
2021/07/24 08:22:59;;;;;;;8.38;5.68;;;;;;;;;;5023203;28;20474;-72
2021/07/24 08:25:26;;;;;;;6.80;5.80;;;;;;;;;;5025155;28;20026;-73
2021/07/24 08:27:53;;;;;;;6.47;5.75;;;;;;;;;;5024972;28;20510;-73
2021/07/24 08:30:19;;;;;;;6.88;6.18;;;;;;;;;;5010093;28;20029;-73
2021/07/24 08:32:45;;;;;;;7.75;5.85;;;;;;;;;;5024597;28;20036;-72
2021/07/24 08:35:12;;;;;;;6.53;5.93;;;;;;;;;;5025149;28;20357;-72
2021/07/24 08:37:38;;;;;;;11.60;6.93;;;;;;;;;;5024902;28;20017;-73
2021/07/24 08:40:04;;;;;;;7.00;5.78;;;;;;;;;;5024554;28;20108;-73
2021/07/24 08:42:41;;;;;;;8.35;6.15;;;;;;;;;;5025116;28;20030;-73
2021/07/24 08:45:08;;;;;;;10.73;6.22;;;;;;;;;;5022683;28;20057;-73
2021/07/24 08:47:35;;;;;;;11.93;6.43;;;;;;;;;;5024519;28;20503;-73
2021/07/24 08:50:02;;;;;;;8.90;6.30;;;;;;;;;;5024599;28;20040;-73
2021/07/24 08:52:30;;;;;;;8.40;5.47;;;;;;;;;;5024909;28;20401;-72
2021/07/24 08:54:56;;;;;;;7.40;5.97;;;;;;;;;;5023123;28;20099;-73
2021/07/24 08:57:31;;;;;;;7.22;5.47;;;;;;;;;;5024449;28;20378;-73
2021/07/24 08:59:59;;;;;;;8.45;5.97;;;;;;;;;;5024700;28;20033;-73
2021/07/24 09:02:27;;;;;;;9.30;5.88;;;;;;;;;;5022836;28;20026;-72
2021/07/24 09:04:55;;;;;;;6.13;5.60;;;;;;;;;;5024394;28;20536;-73
2021/07/24 09:07:22;;;;;;;7.03;5.57;;;;;;;;;;5022916;28;20037;-73
2021/07/24 09:09:49;;;;;;;7.57;5.18;;;;;;;;;;5023961;28;20025;-73
2021/07/24 09:12:16;;;;;;;6.43;4.95;;;;;;;;;;5024414;28;20025;-73
2021/07/24 09:14:42;;;;;;;9.90;5.55;;;;;;;;;;5024114;28;20025;-73
2021/07/24 09:17:11;;;;;;;8.55;5.43;;;;;;;;;;5023104;28;20170;-73
2021/07/24 09:19:37;;;;;;;5.18;4.70;;;;;;;;;;5023888;28;20065;-73
2021/07/24 09:22:04;;;;;;;6.10;5.53;;;;;;;;;;5022755;28;20379;-72
2021/07/24 09:24:30;;;;;;;5.13;4.45;;;;;;;;;;5023520;28;20064;-72
2021/07/24 09:26:56;;;;;;;6.50;4.68;;;;;;;;;;5023457;28;20078;-73
2021/07/24 09:29:22;;;;;;;9.05;5.25;;;;;;;;;;5021392;28;20022;-73
2021/07/24 09:31:48;;;;;;;6.03;5.43;;;;;;;;;;5023208;28;20017;-73
2021/07/24 09:34:15;;;;;;;5.70;4.95;;;;;;;;;;5023335;28;20034;-73
2021/07/24 09:36:42;;;;;;;8.85;5.47;;;;;;;;;;5023075;28;20022;-73
2021/07/24 09:39:15;;;;;;;5.78;5.20;;;;;;;;;;5023149;28;20021;-73
2021/07/24 09:41:43;;;;;;;7.75;4.95;;;;;;;;;;5021457;28;20028;-73
2021/07/24 09:44:09;;;;;;;8.98;5.10;;;;;;;;;;5022920;28;20021;-73
2021/07/24 09:46:35;;;;;;;7.07;5.05;;;;;;;;;;5022816;28;20085;-73
2021/07/24 09:49:12;;;;;;;8.88;5.30;;;;;;;;;;5023187;28;20037;-73
2021/07/24 09:51:42;;;;;;;9.45;4.97;;;;;;;;;;5023028;28;20524;-73
2021/07/24 09:54:28;;;;;;;6.25;4.97;;;;;;;;;;5019306;28;20022;-73
2021/07/24 09:56:57;;;;;;;10.10;5.15;;;;;;;;;;5021748;28;20025;-73
2021/07/24 09:59:25;;;;;;;8.63;5.57;;;;;;;;;;5023169;28;20036;-73
2021/07/24 10:02:01;;;;;;;8.10;4.88;;;;;;;;;;5023010;28;20355;-72
2021/07/24 10:04:31;;;;;;;5.85;4.85;;;;;;;;;;5022883;28;20021;-72
2021/07/24 10:07:03;;;;;;;8.50;5.15;;;;;;;;;;5020433;28;20478;-72
2021/07/24 10:09:32;;;;;;;7.97;5.60;;;;;;;;;;5022981;28;20326;-73
2021/07/24 10:11:59;;;;;;;7.68;5.40;;;;;;;;;;5023126;28;20075;-73
2021/07/24 10:14:25;;;;;;;5.97;4.80;;;;;;;;;;5022876;28;20026;-73
2021/07/24 10:16:52;;;;;;;5.68;4.82;;;;;;;;;;5021540;28;20021;-73
2021/07/24 10:19:19;;;;;;;5.88;4.75;;;;;;;;;;5022869;28;20502;-73
2021/07/24 10:21:46;;;;;;;6.60;4.78;;;;;;;;;;5022510;28;20020;-73
2021/07/24 10:24:13;;;;;;;8.70;5.10;;;;;;;;;;5023096;28;20026;-73
2021/07/24 10:26:40;;;;;;;5.72;4.55;;;;;;;;;;5021309;28;20013;-72
2021/07/24 10:29:07;;;;;;;7.18;4.88;;;;;;;;;;5021052;28;20037;-73
2021/07/24 10:31:52;;;;;;;6.82;4.63;;;;;;;;;;5022139;28;20029;-73
2021/07/24 10:34:21;;;;;;;6.03;4.75;;;;;;;;;;5022225;28;20026;-72
2021/07/24 10:36:47;;;;;;;10.93;4.93;;;;;;;;;;5019510;28;20033;-72
2021/07/24 10:39:16;;;;;;;23.27;6.07;;;;;;;;;;5021929;28;20397;-72
2021/07/24 10:41:43;;;;;;;9.35;6.25;;;;;;;;;;5020712;28;20296;-73
2021/07/24 10:44:17;;;;;;;8.35;5.47;;;;;;;;;;5022940;28;20029;-73
2021/07/24 10:46:43;;;;;;;6.15;4.93;;;;;;;;;;5022169;28;20049;-71
2021/07/24 10:49:29;;;;;;;18.33;6.13;;;;;;;;;;5023170;28;20032;-71
2021/07/24 10:51:56;;;;;;;11.82;5.90;;;;;;;;;;5022238;28;20029;-71
2021/07/24 10:54:23;;;;;;;9.63;5.75;;;;;;;;;;5018688;28;20040;-71
2021/07/24 10:56:49;;;;;;;7.20;5.68;;;;;;;;;;5021903;28;20033;-73
2021/07/24 10:59:19;;;;;;;5.85;4.63;;;;;;;;;;5020616;28;20026;-71
2021/07/24 11:01:53;;;;;;;6.88;5.25;;;;;;;;;;5022420;28;20622;-71
2021/07/24 11:04:41;;;;;;;9.00;5.57;;;;;;;;;;5021952;28;20116;-71
2021/07/24 11:07:13;;;;;;;5.95;5.38;;;;;;;;;;5020712;28;20087;-70
2021/07/24 11:09:43;;;;;;;6.10;4.90;;;;;;;;;;5022300;28;20048;-69
2021/07/24 11:12:13;;;;;;;6.15;4.78;;;;;;;;;;5024673;28;20375;-70
2021/07/24 11:14:42;;;;;;;9.35;5.32;;;;;;;;;;5022801;28;20108;-67
2021/07/24 11:17:10;;;;;;;7.47;5.40;;;;;;;;;;5021221;28;20627;-69
2021/07/24 11:19:36;;;;;;;8.93;5.47;;;;;;;;;;5021433;28;20053;-70
2021/07/24 11:22:15;;;;;;;5.68;4.68;;;;;;;;;;5020768;28;20101;-70
2021/07/24 11:25:04;;;;;;;8.38;5.38;;;;;;;;;;5021060;28;20524;-69
2021/07/24 11:27:33;;;;;;;9.95;5.10;;;;;;;;;;5021363;28;20061;-70
2021/07/24 11:30:03;;;;;;;5.82;4.80;;;;;;;;;;5020391;28;20544;-70
2021/07/24 11:32:29;;;;;;;5.68;4.85;;;;;;;;;;5020804;28;20071;-70
2021/07/24 11:35:06;;;;;;;6.20;4.93;;;;;;;;;;5020909;28;20056;-71
2021/07/24 11:37:42;;;;;;;5.35;4.53;;;;;;;;;;5021176;28;20021;-70
2021/07/24 11:40:12;;;;;;;6.20;5.20;;;;;;;;;;5016871;28;20021;-72
2021/07/24 11:42:39;;;;;;;8.15;5.80;;;;;;;;;;5020638;28;20071;-70
2021/07/24 11:45:05;;;;;;;9.88;5.30;;;;;;;;;;5020914;28;20040;-70
2021/07/24 11:47:31;;;;;;;5.13;4.57;;;;;;;;;;5020713;28;20041;-70
2021/07/24 11:50:16;;;;;;;6.68;4.95;;;;;;;;;;5021447;28;20528;-71
2021/07/24 11:52:45;;;;;;;5.97;4.60;;;;;;;;;;5018410;28;20457;-70
2021/07/24 11:55:12;;;;;;;7.18;5.00;;;;;;;;;;5018645;28;20417;-70
2021/07/24 11:57:41;;;;;;;4.63;4.22;;;;;;;;;;5020398;28;20022;-71
2021/07/24 12:00:08;;;;;;;6.65;4.80;;;;;;;;;;5020970;28;20120;-72
2021/07/24 12:02:34;;;;;;;9.77;4.68;;;;;;;;;;5019126;28;20041;-71
2021/07/24 12:05:00;;;;;;;6.30;4.93;;;;;;;;;;5020809;28;20566;-71
2021/07/24 12:07:26;;;;;;;5.55;4.50;;;;;;;;;;5020758;28;20542;-71
2021/07/24 12:09:53;;;;;;;6.22;4.68;;;;;;;;;;5020549;28;20421;-71
2021/07/24 12:12:26;;;;;;;6.28;4.68;;;;;;;;;;5020793;28;20093;-70
2021/07/24 12:14:56;;;;;;;6.88;5.15;;;;;;;;;;5018666;28;20026;-71
2021/07/24 12:17:27;;;;;;;9.20;5.05;;;;;;;;;;5020627;28;20389;-71
2021/07/24 12:19:54;;;;;;;7.00;4.90;;;;;;;;;;5020535;28;20056;-76
2021/07/24 12:22:21;;;;;;;5.30;4.47;;;;;;;;;;5019904;28;20048;-71
2021/07/24 12:24:49;;;;;;;5.07;4.50;;;;;;;;;;5020326;28;20044;-72
2021/07/24 12:27:16;;;;;;;7.65;4.80;;;;;;;;;;5020427;28;20124;-71
2021/07/24 12:29:50;;;;;;;9.57;5.00;;;;;;;;;;5016379;28;20106;-71
2021/07/24 12:32:17;;;;;;;5.63;5.00;;;;;;;;;;5020588;28;20040;-72
2021/07/24 12:34:46;;;;;;;5.28;4.75;;;;;;;;;;5018001;28;21532;-71
2021/07/24 12:37:12;;;;;;;5.38;4.60;;;;;;;;;;5021368;28;20053;-70
2021/07/24 12:39:38;;;;;;;5.85;4.70;;;;;;;;;;5020936;28;20025;-71
2021/07/24 12:42:05;;;;;;;6.40;5.20;;;;;;;;;;5020603;28;20037;-71
2021/07/24 12:44:32;;;;;;;6.72;4.53;;;;;;;;;;5019733;28;20091;-71
2021/07/24 12:47:12;;;;;;;8.50;5.20;;;;;;;;;;5020882;28;20109;-71
2021/07/24 12:49:41;;;;;;;5.30;4.80;;;;;;;;;;5020869;28;20036;-73
2021/07/24 12:52:23;;;;;;;5.35;4.18;;;;;;;;;;5020003;28;20118;-70
2021/07/24 12:55:00;;;;;;;6.70;4.82;;;;;;;;;;5009257;28;20597;-71
2021/07/24 12:57:26;;;;;;;4.88;4.47;;;;;;;;;;5020779;28;20125;-72
2021/07/24 12:59:52;;;;;;;7.60;5.28;;;;;;;;;;5021085;28;20021;-72
2021/07/24 13:02:21;;;;;;;13.23;5.47;;;;;;;;;;5021597;28;20414;-71
2021/07/24 13:04:51;;;;;;;7.55;4.55;;;;;;;;;;5017163;28;20036;-71
2021/07/24 13:07:17;;;;;;;8.18;5.03;;;;;;;;;;5023847;28;20022;-73
2021/07/24 13:09:44;;;;;;;5.72;5.18;;;;;;;;;;5023298;28;20033;-71
2021/07/24 13:12:10;;;;;;;7.63;4.60;;;;;;;;;;5024134;28;20036;-71
2021/07/24 13:14:36;;;;;;;8.73;5.40;;;;;;;;;;5023696;28;20033;-71
2021/07/24 13:17:02;;;;;;;7.00;4.97;;;;;;;;;;5024854;28;20028;-71
2021/07/24 13:19:28;;;;;;;5.07;4.50;;;;;;;;;;5022433;28;20057;-71
2021/07/24 13:21:54;;;;;;;6.40;5.35;;;;;;;;;;5023844;28;20022;-71
2021/07/24 13:24:21;;;;;;;6.00;4.30;;;;;;;;;;5023404;28;20026;-71
2021/07/24 13:29:32;;;;;;;6.90;4.60;;;;;;;;;;5024451;28;20098;-71
2021/07/24 13:31:59;;;;;;;8.90;4.68;;;;;;;;;;5022061;28;20033;-71
2021/07/24 13:34:25;;;;;;;8.43;4.45;;;;;;;;;;5024462;28;20026;-70
2021/07/24 13:36:52;;;;;;;5.78;5.10;;;;;;;;;;5024005;28;20032;-71
2021/07/24 13:39:18;;;;;;;5.07;4.43;;;;;;;;;;5023480;28;20044;-70
2021/07/24 13:41:44;;;;;;;6.57;4.80;;;;;;;;;;5023292;28;20017;-71
2021/07/24 13:44:10;;;;;;;7.50;5.13;;;;;;;;;;5023480;28;20025;-74
2021/07/24 13:46:36;;;;;;;6.90;4.85;;;;;;;;;;5016518;28;20029;-70
2021/07/24 13:49:04;;;;;;;6.55;4.55;;;;;;;;;;5022745;28;20428;-73
2021/07/24 13:51:30;;;;;;;5.82;4.97;;;;;;;;;;5021815;28;20553;-71
2021/07/24 13:53:56;;;;;;;9.18;5.28;;;;;;;;;;5022472;28;20071;-71
2021/07/24 13:56:23;;;;;;;8.63;5.28;;;;;;;;;;5022084;28;20474;-74
2021/07/24 13:58:49;;;;;;;7.18;5.10;;;;;;;;;;5018765;28;20041;-73
2021/07/24 14:01:16;;;;;;;6.13;4.88;;;;;;;;;;5021393;28;20038;-71
2021/07/24 14:03:42;;;;;;;9.35;5.07;;;;;;;;;;5022455;28;20108;-71
2021/07/24 14:06:08;;;;;;;5.65;4.88;;;;;;;;;;5022290;28;20022;-72
2021/07/24 14:08:34;;;;;;;7.13;4.93;;;;;;;;;;5022723;28;20068;-71
2021/07/24 14:11:00;;;;;;;6.43;5.03;;;;;;;;;;5022745;28;20021;-71
2021/07/24 14:13:27;;;;;;;5.70;4.78;;;;;;;;;;5020640;28;20083;-71
2021/07/24 14:15:53;;;;;;;5.13;4.60;;;;;;;;;;5021509;28;20750;-72
2021/07/24 14:18:19;;;;;;;6.28;4.78;;;;;;;;;;5022062;28;20037;-71
2021/07/24 14:20:49;;;;;;;8.13;4.72;;;;;;;;;;5021981;28;20026;-71
2021/07/24 14:23:15;;;;;;;5.95;4.90;;;;;;;;;;5020048;28;20784;-71
2021/07/24 14:25:42;;;;;;;6.53;4.68;;;;;;;;;;5022257;28;20033;-72
2021/07/24 14:28:08;;;;;;;5.68;4.35;;;;;;;;;;5021580;28;20049;-72
2021/07/24 14:30:34;;;;;;;5.72;4.88;;;;;;;;;;5022134;28;20079;-71
2021/07/24 14:33:00;;;;;;;5.63;5.03;;;;;;;;;;5019556;28;20022;-71
2021/07/24 14:35:26;;;;;;;7.30;4.65;;;;;;;;;;5021682;28;20025;-71
2021/07/24 14:37:52;;;;;;;9.00;5.55;;;;;;;;;;5021458;28;20604;-72
2021/07/24 14:40:19;;;;;;;6.28;4.20;;;;;;;;;;5020071;28;20029;-71
2021/07/24 14:42:45;;;;;;;7.68;4.85;;;;;;;;;;5020426;28;20439;-71
2021/07/24 14:45:11;;;;;;;6.90;4.75;;;;;;;;;;5022219;28;20120;-72